Station History

Weather Underground - logo

Station Historical Data
Daily Summary for March 1, 2018 Units:  Metric    English   Both
« Previous Day
Next Day »
Daily Weekly Monthly Yearly Custom
  High: Low: Average:
Temperature: 16.8 °C 6.1 °C 10.9 °C
Dew Point: 10.6 °C 4.1 °C 7 °C
Humidity: 92 % 50 % 78 %
Wind Speed: 14.5 km/h 0 km/h 1.4 km/h
Wind Gust: 14.5 km/h - -
Wind:- - SE
Pressure: 1021.9 hPa 1014.1 hPa -
Precipitation: 4.83 mm    
Historical Graphs
 
 
Tabular Data for March 1, 2018
Time Temperature Dew Point Pressure Wind Wind Speed Wind Gust Humidity Rainfall Rate (Hourly)
00:03 6.1 °C 4.1 °C 1021.9 hPa Calm     87 % 0 mm
00:08 6.2 °C 4.2 °C 1021.9 hPa Calm     87 % 0 mm
00:13 6.3 °C 4.3 °C 1021.9 hPa Calm     87 % 0 mm
00:17 6.3 °C 4.3 °C 1021.9 hPa Calm     87 % 0 mm
00:22 6.4 °C 4.4 °C 1021.9 hPa Calm     87 % 0 mm
00:27 6.6 °C 4.6 °C 1021.9 hPa Calm     87 % 0 mm
00:31 6.8 °C 4.7 °C 1021.9 hPa Calm     86 % 0 mm
00:36 7.1 °C 4.7 °C 1021.9 hPa Calm     85 % 0 mm
00:40 7.2 °C 4.8 °C 1021.9 hPa Calm     85 % 0 mm
00:45 7.2 °C 4.7 °C 1021.9 hPa Calm     84 % 0 mm
00:48 7.2 °C 4.7 °C 1021.9 hPa Calm     84 % 0 mm
00:53 7.2 °C 4.7 °C 1021.6 hPa Calm     84 % 0 mm
00:58 7.2 °C 4.7 °C 1021.6 hPa Calm     84 % 0 mm
01:03 7.2 °C 4.8 °C 1021.6 hPa Calm     85 % 0 mm
01:09 7.1 °C 4.9 °C 1021.6 hPa Calm     86 % 0 mm
01:14 7 °C 4.8 °C 1021.9 hPa Calm     86 % 0 mm
01:17 6.9 °C 4.7 °C 1021.9 hPa Calm     86 % 0 mm
01:22 6.7 °C 4.6 °C 1021.6 hPa Calm     86 % 0 mm
01:23 6.7 °C 4.6 °C 1021.6 hPa Calm     86 % 0 mm
01:28 6.6 °C 4.6 °C 1021.6 hPa Calm     87 % 0 mm
01:33 6.5 °C 4.5 °C 1021.6 hPa Calm     87 % 0 mm
01:38 6.5 °C 4.5 °C 1021.6 hPa Calm     87 % 0 mm
01:39 6.5 °C 4.5 °C 1021.6 hPa Calm     87 % 0 mm
01:43 6.6 °C 4.6 °C 1021.6 hPa Calm     87 % 0 mm
01:48 6.7 °C 4.6 °C 1021.6 hPa Calm     86 % 0 mm
01:53 6.9 °C 4.4 °C 1021.6 hPa Calm     84 % 0 mm
01:58 7.1 °C 4.4 °C 1021.6 hPa Calm     83 % 0 mm
02:03 7.2 °C 4.3 °C 1021.6 hPa Calm     82 % 0 mm
02:08 7.2 °C 4.3 °C 1021.6 hPa ESE 3.7 km/h 3.7 km/h 82 % 0 mm
02:13 7.3 °C 4.3 °C 1021.6 hPa ESE 1.9 km/h   81 % 0 mm
02:18 7.4 °C 4.3 °C 1021.6 hPa Calm     81 % 0 mm
02:23 7.4 °C 4.4 °C 1021.6 hPa ESE 1.9 km/h 1.9 km/h 81 % 0 mm
02:28 7.6 °C 4.3 °C 1021.6 hPa ESE 1.6 km/h   80 % 0 mm
02:33 7.6 °C 4.2 °C 1021.6 hPa Calm     79 % 0 mm
02:38 7.6 °C 4.4 °C 1021.2 hPa Calm     80 % 0 mm
02:43 7.6 °C 4.3 °C 1021.2 hPa ESE 1.9 km/h 1.9 km/h 80 % 0 mm
02:48 7.5 °C 4.4 °C 1020.9 hPa ESE 1.9 km/h 1.9 km/h 81 % 0 mm
02:53 7.4 °C 4.3 °C 1020.9 hPa Calm     81 % 0 mm
02:58 7.3 °C 4.3 °C 1020.9 hPa ESE 1.9 km/h   81 % 0 mm
03:03 7.3 °C 4.2 °C 1020.9 hPa Calm     81 % 0 mm
03:09 7.2 °C 4.2 °C 1020.9 hPa ESE 1.9 km/h   81 % 0 mm
03:14 7.1 °C 4.2 °C 1020.9 hPa ESE 1.9 km/h 1.9 km/h 82 % 0 mm
03:19 7 °C 4.1 °C 1020.9 hPa Calm     82 % 0 mm
03:24 7 °C 4.1 °C 1020.9 hPa Calm     82 % 0 mm
03:29 7.1 °C 4.2 °C 1020.9 hPa Calm     82 % 0 mm
03:34 7.1 °C 4.2 °C 1020.9 hPa Calm     82 % 0 mm
03:39 7.1 °C 4.2 °C 1020.9 hPa Calm     82 % 0 mm
03:44 7.1 °C 4.2 °C 1020.9 hPa Calm     82 % 0 mm
03:49 7.1 °C 4.2 °C 1021.2 hPa Calm     82 % 0 mm
03:54 7.1 °C 4.2 °C 1021.2 hPa Calm     82 % 0 mm
03:59 7.1 °C 4.2 °C 1021.2 hPa Calm     82 % 0 mm
04:04 7.2 °C 4.3 °C 1021.2 hPa Calm     82 % 0 mm
04:09 7.3 °C 4.4 °C 1021.2 hPa ESE 1.9 km/h 1.9 km/h 82 % 0 mm
04:14 7.3 °C 4.4 °C 1021.2 hPa ESE 1.6 km/h   82 % 0 mm
04:19 7.3 °C 4.4 °C 1021.2 hPa ESE 1.9 km/h 1.9 km/h 82 % 0 mm
04:24 7.4 °C 4.7 °C 1020.9 hPa Calm     83 % 0 mm
04:29 7.5 °C 4.8 °C 1020.9 hPa ESE 1.9 km/h 1.9 km/h 83 % 0 mm
04:34 7.5 °C 4.8 °C 1020.9 hPa Calm     83 % 0 mm
04:39 7.6 °C 4.8 °C 1020.9 hPa Calm     83 % 0 mm
04:44 7.6 °C 4.9 °C 1020.9 hPa Calm     83 % 0 mm
04:49 7.8 °C 4.9 °C 1020.9 hPa ESE 1.9 km/h   82 % 0 mm
04:54 7.9 °C 5.1 °C 1020.9 hPa ESE 1.9 km/h   82 % 0 mm
04:59 8.1 °C 5.2 °C 1020.5 hPa ESE 1.9 km/h   82 % 0 mm
05:04 8.1 °C 5.2 °C 1020.9 hPa ESE 1.9 km/h   82 % 0 mm
05:09 8 °C 5.1 °C 1020.5 hPa ESE 1.9 km/h   82 % 0 mm
05:14 8.1 °C 5.3 °C 1020.5 hPa Calm     83 % 0 mm
05:19 8.1 °C 5.2 °C 1020.5 hPa Calm     82 % 0 mm
05:25 7.9 °C 5.2 °C 1020.5 hPa Calm     83 % 0 mm
05:30 7.8 °C 5.1 °C 1020.5 hPa Calm     83 % 0 mm
05:35 7.7 °C 5.2 °C 1020.2 hPa Calm     84 % 0 mm
05:40 7.6 °C 5.1 °C 1020.2 hPa Calm     84 % 0 mm
05:45 7.6 °C 5 °C 1020.2 hPa Calm     84 % 0 mm
05:50 7.5 °C 5.2 °C 1020.2 hPa Calm     85 % 0 mm
05:55 7.3 °C 4.9 °C 1020.2 hPa Calm     85 % 0 mm
06:00 7.1 °C 4.8 °C 1019.9 hPa Calm     85 % 0 mm
06:05 7.1 °C 4.9 °C 1019.9 hPa Calm     86 % 0 mm
06:10 7 °C 5 °C 1019.9 hPa Calm     87 % 0 mm
06:15 6.9 °C 4.9 °C 1019.9 hPa Calm     87 % 0 mm
06:20 6.9 °C 4.9 °C 1019.9 hPa Calm     87 % 0 mm
06:25 6.8 °C 4.8 °C 1019.9 hPa Calm     87 % 0 mm
06:30 6.7 °C 4.7 °C 1019.9 hPa Calm     87 % 0 mm
06:35 6.6 °C 4.8 °C 1019.9 hPa Calm     88 % 0 mm
06:40 6.6 °C 4.8 °C 1019.9 hPa Calm     88 % 0 mm
06:45 6.6 °C 4.8 °C 1019.9 hPa Calm     88 % 0 mm
06:50 6.6 °C 4.8 °C 1019.9 hPa Calm     88 % 0 mm
06:55 6.6 °C 4.7 °C 1019.9 hPa Calm     88 % 0 mm
06:59 6.6 °C 4.7 °C 1019.9 hPa ESE 1.9 km/h   88 % 0 mm
07:04 6.6 °C 4.8 °C 1019.9 hPa Calm     88 % 0 mm
07:09 6.7 °C 4.8 °C 1019.9 hPa Calm     88 % 0 mm
07:14 6.8 °C 5 °C 1019.9 hPa Calm     88 % 0 mm
07:19 6.9 °C 5.1 °C 1019.9 hPa Calm     88 % 0 mm
07:24 7.1 °C 5.1 °C 1020.2 hPa Calm     87 % 0 mm
07:29 7.3 °C 5.3 °C 1020.2 hPa Calm     87 % 0 mm
07:34 7.5 °C 5.3 °C 1020.2 hPa Calm     86 % 0 mm
07:39 7.6 °C 5.4 °C 1020.2 hPa Calm     86 % 0 mm
07:44 7.8 °C 5.4 °C 1020.2 hPa Calm     85 % 0 mm
07:49 7.9 °C 5.4 °C 1020.2 hPa Calm     84 % 0 mm
07:54 8.2 °C 5.4 °C 1020.2 hPa ESE 3.7 km/h 3.7 km/h 83 % 0 mm
08:00 8.4 °C 5.7 °C 1020.2 hPa ESE 3.7 km/h 3.7 km/h 83 % 0 mm
08:05 8.5 °C 5.2 °C 1020.2 hPa SSE 5.6 km/h 5.6 km/h 80 % 0 mm
08:10 8.6 °C 5.3 °C 1020.2 hPa SSE 3.7 km/h 3.7 km/h 80 % 0 mm
08:15 8.7 °C 5.4 °C 1020.2 hPa SSE 1.9 km/h 1.9 km/h 80 % 0 mm
08:20 8.8 °C 5.2 °C 1020.2 hPa SE 1.9 km/h   78 % 0 mm
08:25 8.9 °C 5.1 °C 1020.2 hPa SE 1.9 km/h 1.9 km/h 77 % 0 mm
08:30 9 °C 5.2 °C 1020.2 hPa SE 1.9 km/h   77 % 0 mm
08:35 9.1 °C 5.1 °C 1020.2 hPa SE 1.9 km/h 1.9 km/h 76 % 0 mm
08:40 9.2 °C 5 °C 1020.2 hPa SE 1.9 km/h 1.9 km/h 75 % 0 mm
08:45 9.4 °C 5 °C 1020.2 hPa SE 1.6 km/h   74 % 0 mm
08:50 9.6 °C 5.2 °C 1020.2 hPa Calm     74 % 0 mm
08:55 9.7 °C 5.1 °C 1020.2 hPa Calm     73 % 0 mm
09:00 9.8 °C 5.4 °C 1020.2 hPa Calm     74 % 0 mm
09:05 9.9 °C 5.3 °C 1020.2 hPa Calm     73 % 0 mm
09:10 10.1 °C 5.6 °C 1020.5 hPa Calm     74 % 0 mm
09:15 10.2 °C 5.7 °C 1020.5 hPa Calm     74 % 0 mm
09:20 10.2 °C 5.6 °C 1020.5 hPa Calm     73 % 0 mm
09:25 10.3 °C 5.4 °C 1020.5 hPa Calm     72 % 0 mm
09:30 10.3 °C 6.1 °C 1020.5 hPa Calm     75 % 0 mm
09:35 10.3 °C 6.4 °C 1020.5 hPa Calm     77 % 0 mm
09:40 10.3 °C 7 °C 1020.2 hPa Calm     80 % 0 mm
09:45 10.2 °C 6.9 °C 1020.2 hPa ESE 1.9 km/h 1.9 km/h 80 % 0 mm
09:50 10.3 °C 7 °C 1020.2 hPa Calm     80 % 0 mm
09:55 10.4 °C 6.7 °C 1020.2 hPa Calm     78 % 0 mm
10:00 10.6 °C 7.1 °C 1020.2 hPa Calm     79 % 0 mm
10:05 10.7 °C 7.2 °C 1019.9 hPa NE 1.9 km/h   79 % 0 mm
10:10 11 °C 7.1 °C 1020.2 hPa NNE 1.9 km/h   77 % 0 mm
10:15 11.2 °C 6.9 °C 1020.2 hPa East 1.6 km/h   75 % 0 mm
10:20 11.4 °C 6.8 °C 1019.5 hPa East 1.9 km/h 1.9 km/h 73 % 0 mm
10:25 11.9 °C 7 °C 1019.5 hPa SE 1.9 km/h   72 % 0 mm
10:30 12.2 °C 6.7 °C 1019.9 hPa Calm     69 % 0 mm
10:35 12.4 °C 6.3 °C 1020.2 hPa SE 1.9 km/h   66 % 0 mm
10:40 12.6 °C 6.7 °C 1020.2 hPa Calm     67 % 0 mm
10:45 12.8 °C 6.8 °C 1020.2 hPa Calm     67 % 0 mm
10:50 12.8 °C 6.8 °C 1020.2 hPa NW 1.6 km/h   67 % 0 mm
10:55 12.8 °C 7 °C 1020.2 hPa Calm     68 % 0 mm
11:00 12.7 °C 6.9 °C 1020.2 hPa NW 1.9 km/h 1.9 km/h 68 % 0 mm
11:02 12.8 °C 7.2 °C 1019.9 hPa WNW 1.9 km/h 1.9 km/h 69 % 0 mm
11:07 12.9 °C 6.9 °C 1019.9 hPa Calm     67 % 0 mm
11:12 13.1 °C 6.8 °C 1019.9 hPa Calm     66 % 0 mm
11:17 13.2 °C 7.2 °C 1019.9 hPa Calm     67 % 0 mm
11:22 13.3 °C 7.1 °C 1019.9 hPa NW 3.2 km/h 3.2 km/h 66 % 0 mm
11:27 13.4 °C 7 °C 1019.5 hPa WNW 1.9 km/h   65 % 0 mm
11:32 13.8 °C 6.8 °C 1019.5 hPa East 1.9 km/h 1.9 km/h 63 % 0 mm
11:37 13.9 °C 6.1 °C 1019.5 hPa SW 1.9 km/h   59 % 0 mm
11:42 14.1 °C 6.4 °C 1019.5 hPa SE 3.7 km/h 3.7 km/h 60 % 0 mm
11:47 14.2 °C 6.5 °C 1019.5 hPa ESE 1.9 km/h 1.9 km/h 60 % 0 mm
11:52 14.2 °C 5.8 °C 1019.2 hPa ESE 3.7 km/h 3.7 km/h 57 % 0 mm
11:57 14.4 °C 6 °C 1019.2 hPa SE 3.7 km/h 3.7 km/h 57 % 0 mm
12:02 14.6 °C 5.6 °C 1019.2 hPa SE 5.6 km/h 5.6 km/h 55 % 0 mm
12:07 14.6 °C 5.1 °C 1019.2 hPa ESE 3.7 km/h 3.7 km/h 53 % 0 mm
12:12 14.7 °C 5.4 °C 1018.8 hPa SE 4.8 km/h 4.8 km/h 54 % 0 mm
12:17 14.7 °C 5.4 °C 1019.2 hPa SE 9.7 km/h 9.7 km/h 54 % 0 mm
12:22 14.7 °C 5.4 °C 1019.2 hPa SE 3.7 km/h 3.7 km/h 54 % 0 mm
12:27 14.7 °C 5.7 °C 1018.8 hPa East 3.7 km/h 3.7 km/h 55 % 0 mm
12:32 14.7 °C 5.8 °C 1018.8 hPa ESE 1.9 km/h 1.9 km/h 55 % 0 mm
12:37 14.8 °C 6.1 °C 1018.8 hPa ESE 1.9 km/h 1.9 km/h 56 % 0 mm
12:42 14.9 °C 6.2 °C 1018.5 hPa East 1.9 km/h 1.9 km/h 56 % 0 mm
12:47 14.9 °C 6 °C 1018.5 hPa ESE 1.9 km/h 1.9 km/h 55 % 0 mm
12:52 15 °C 6.8 °C 1018.5 hPa ESE 1.9 km/h 1.9 km/h 58 % 0 mm
12:57 15 °C 7.6 °C 1018.2 hPa SE 1.9 km/h 1.9 km/h 61 % 0 mm
13:02 15 °C 7.8 °C 1018.2 hPa SE 1.9 km/h 1.9 km/h 62 % 0 mm
13:07 15 °C 7.6 °C 1018.2 hPa SE 4.8 km/h 4.8 km/h 61 % 0 mm
13:13 15.1 °C 7.4 °C 1018.2 hPa SE 5.6 km/h 5.6 km/h 60 % 0 mm
13:18 15.3 °C 7.1 °C 1018.2 hPa ESE 5.6 km/h 5.6 km/h 58 % 0 mm
13:23 15.6 °C 7.1 °C 1017.8 hPa ENE 1.9 km/h 1.9 km/h 57 % 0 mm
13:28 15.9 °C 7.4 °C 1017.8 hPa East 3.7 km/h 3.7 km/h 57 % 0 mm
13:33 16.3 °C 7.2 °C 1017.8 hPa ENE 5.6 km/h 5.6 km/h 55 % 0 mm
13:38 16.3 °C 6.7 °C 1017.8 hPa East 7.4 km/h 7.4 km/h 53 % 0 mm
13:43 16.3 °C 6.4 °C 1017.8 hPa SE 5.6 km/h 5.6 km/h 52 % 0 mm
13:48 16.6 °C 6.7 °C 1017.8 hPa SSE 7.4 km/h 7.4 km/h 52 % 0 mm
13:53 16.8 °C 6.6 °C 1017.5 hPa SE 14.5 km/h 14.5 km/h 51 % 0 mm
13:58 16.8 °C 6.3 °C 1017.5 hPa East 9.3 km/h 9.3 km/h 50 % 0 mm
14:03 16.8 °C 6.3 °C 1017.5 hPa ESE 9.3 km/h 9.3 km/h 50 % 0 mm
14:08 16.8 °C 6.6 °C 1017.5 hPa SSE 11.3 km/h 11.3 km/h 51 % 0 mm
14:13 16.6 °C 6.7 °C 1017.5 hPa SE 11.1 km/h 11.1 km/h 52 % 0 mm
14:18 16.4 °C 6.8 °C 1017.5 hPa South 5.6 km/h 5.6 km/h 53 % 0 mm
14:23 16.3 °C 6.7 °C 1017.2 hPa SSE 7.4 km/h 7.4 km/h 53 % 0 mm
14:28 16.2 °C 6.9 °C 1017.2 hPa ESE 7.4 km/h 7.4 km/h 54 % 0 mm
14:33 16.2 °C 7.1 °C 1017.2 hPa East 5.6 km/h 5.6 km/h 55 % 0 mm
14:38 16.1 °C 7.1 °C 1017.2 hPa ENE 9.7 km/h 9.7 km/h 55 % 0 mm
14:43 16.1 °C 7 °C 1017.2 hPa SSE 3.7 km/h 3.7 km/h 55 % 0 mm
14:48 16.1 °C 7 °C 1016.8 hPa ENE 9.3 km/h 9.3 km/h 55 % 0 mm
14:53 16.3 °C 7.6 °C 1016.8 hPa SSE 3.2 km/h 3.2 km/h 56 % 0 mm
14:58 16.7 °C 7.3 °C 1016.8 hPa SSW 5.6 km/h 5.6 km/h 54 % 0 mm
15:03 16.7 °C 7.3 °C 1016.8 hPa SSE 3.7 km/h 3.7 km/h 54 % 0 mm
15:08 16.7 °C 6.8 °C 1016.5 hPa WSW 11.1 km/h 11.1 km/h 52 % 0 mm
15:13 16.7 °C 7.1 °C 1016.5 hPa ENE 5.6 km/h 5.6 km/h 53 % 0 mm
15:18 16.4 °C 6.8 °C 1016.5 hPa SSE 9.3 km/h 9.3 km/h 53 % 0 mm
15:23 16.2 °C 6.9 °C 1016.5 hPa SSE 5.6 km/h 5.6 km/h 54 % 0 mm
15:28 16.1 °C 7.1 °C 1016.5 hPa SSE 1.9 km/h 1.9 km/h 55 % 0 mm
15:33 16 °C 7.2 °C 1016.5 hPa SSE 5.6 km/h 5.6 km/h 56 % 0 mm
15:38 15.9 °C 7.4 °C 1016.5 hPa SE 5.6 km/h 5.6 km/h 57 % 0 mm
15:43 15.8 °C 7.8 °C 1016.1 hPa ESE 1.9 km/h 1.9 km/h 59 % 0 mm
15:48 15.7 °C 8.2 °C 1016.1 hPa Calm     61 % 0 mm
15:53 15.6 °C 8.6 °C 1016.1 hPa Calm     63 % 0 mm
15:58 15.5 °C 8.7 °C 1016.1 hPa Calm     64 % 0 mm
16:03 15.4 °C 8.2 °C 1016.1 hPa SSE 3.7 km/h 3.7 km/h 62 % 0 mm
16:08 15.4 °C 7.7 °C 1016.1 hPa SSE 3.7 km/h 3.7 km/h 60 % 0 mm
16:13 15.4 °C 8.4 °C 1016.1 hPa Calm     63 % 0 mm
16:18 15.4 °C 8.8 °C 1016.1 hPa Calm     65 % 0 mm
16:23 15.4 °C 9.3 °C 1016.1 hPa Calm     67 % 0 mm
16:28 15.2 °C 9.6 °C 1015.8 hPa Calm     69 % 0.25 mm
16:33 15.1 °C 10.3 °C 1015.8 hPa Calm     73 % 0.25 mm
16:38 14.8 °C 10.2 °C 1015.8 hPa Calm     74 % 0.25 mm
16:43 14.6 °C 10 °C 1015.8 hPa Calm     74 % 0.25 mm
16:48 14.5 °C 9.9 °C 1015.8 hPa Calm     74 % 0.25 mm
16:53 14.4 °C 9.8 °C 1015.8 hPa SE 1.9 km/h 1.9 km/h 74 % 0.25 mm
16:58 14.3 °C 9.9 °C 1015.8 hPa Calm     75 % 0.25 mm
17:03 14.1 °C 10.1 °C 1015.8 hPa Calm     77 % 0.51 mm
17:08 13.8 °C 10.1 °C 1015.8 hPa Calm     78 % 0.51 mm
17:13 13.7 °C 10.3 °C 1015.8 hPa Calm     80 % 0.51 mm
17:18 13.3 °C 10.3 °C 1015.8 hPa Calm     82 % 0.51 mm
17:23 13.1 °C 10.4 °C 1015.5 hPa Calm     84 % 0.51 mm
17:28 12.8 °C 10.4 °C 1015.8 hPa Calm     85 % 0.25 mm
17:33 12.7 °C 10.3 °C 1015.8 hPa Calm     85 % 0.51 mm
17:38 12.6 °C 10.2 °C 1015.8 hPa Calm     85 % 0.51 mm
17:43 12.6 °C 10.3 °C 1015.8 hPa Calm     86 % 0.51 mm
17:48 12.4 °C 10.3 °C 1015.8 hPa Calm     87 % 0.51 mm
17:53 12.3 °C 10.2 °C 1015.8 hPa Calm     87 % 0.51 mm
17:58 12.2 °C 10.3 °C 1015.8 hPa Calm     88 % 0.51 mm
18:03 12.2 °C 10.3 °C 1015.8 hPa Calm     88 % 0.25 mm
18:08 12.2 °C 10.3 °C 1015.8 hPa Calm     88 % 0.25 mm
18:13 12.2 °C 10.3 °C 1015.8 hPa Calm     88 % 0.25 mm
18:18 12.2 °C 10.3 °C 1015.8 hPa Calm     88 % 0.51 mm
18:23 12.3 °C 10.5 °C 1015.8 hPa Calm     89 % 0.51 mm
18:28 12.3 °C 10.3 °C 1015.8 hPa Calm     88 % 0.51 mm
18:33 12.3 °C 10.5 °C 1015.8 hPa Calm     89 % 0.25 mm
18:38 12.2 °C 10.6 °C 1015.8 hPa Calm     90 % 0.25 mm
18:43 12.1 °C 10.5 °C 1015.8 hPa Calm     90 % 0.51 mm
18:48 12 °C 10.4 °C 1015.8 hPa Calm     90 % 0.51 mm
18:53 11.9 °C 10.3 °C 1015.5 hPa ESE 1.9 km/h 1.9 km/h 90 % 0.51 mm
18:58 11.9 °C 10.3 °C 1015.5 hPa Calm     90 % 0.51 mm
19:03 11.8 °C 10.2 °C 1015.8 hPa Calm     90 % 0.51 mm
19:08 11.8 °C 10.2 °C 1015.8 hPa Calm     90 % 0.51 mm
19:13 11.7 °C 10.1 °C 1015.8 hPa Calm     90 % 0.51 mm
19:18 11.7 °C 10.1 °C 1015.8 hPa Calm     90 % 0.25 mm
19:23 11.7 °C 10.2 °C 1015.8 hPa Calm     91 % 0.25 mm
19:28 11.7 °C 10.2 °C 1015.8 hPa ESE 1.9 km/h   91 % 0.51 mm
19:33 11.6 °C 10.2 °C 1015.8 hPa Calm     91 % 0.51 mm
19:38 11.7 °C 10.1 °C 1015.5 hPa ESE 1.9 km/h   90 % 0.51 mm
19:43 11.7 °C 9.9 °C 1015.5 hPa East 1.9 km/h   89 % 0.25 mm
19:48 11.7 °C 9.9 °C 1015.5 hPa Calm     89 % 0.25 mm
19:53 11.7 °C 9.9 °C 1015.5 hPa Calm     89 % 0.25 mm
19:58 11.6 °C 10 °C 1015.5 hPa Calm     90 % 0.51 mm
20:03 11.6 °C 10 °C 1015.5 hPa Calm     90 % 0.76 mm
20:08 11.6 °C 9.9 °C 1015.5 hPa Calm     90 % 0.76 mm
20:13 11.5 °C 9.9 °C 1015.5 hPa Calm     90 % 0.76 mm
20:18 11.4 °C 9.9 °C 1015.5 hPa East 1.6 km/h   90 % 0.76 mm
20:23 11.5 °C 9.9 °C 1015.8 hPa NE 1.9 km/h   90 % 0.76 mm
20:28 11.6 °C 9.9 °C 1015.8 hPa Calm     90 % 0.76 mm
20:33 11.5 °C 9.9 °C 1015.8 hPa Calm     90 % 0.76 mm
20:38 11.4 °C 9.9 °C 1015.5 hPa Calm     90 % 1.02 mm
20:43 11.4 °C 9.8 °C 1015.1 hPa Calm     90 % 1.02 mm
20:48 11.4 °C 9.8 °C 1015.1 hPa SE 1.9 km/h   90 % 1.02 mm
20:53 11.4 °C 9.8 °C 1015.5 hPa Calm     90 % 1.02 mm
20:58 11.3 °C 9.8 °C 1015.5 hPa Calm     90 % 0.76 mm
21:03 11.3 °C 9.8 °C 1015.1 hPa Calm     90 % 0.51 mm
21:08 11.3 °C 9.8 °C 1015.1 hPa Calm     90 % 0.51 mm
21:13 11.3 °C 9.8 °C 1014.8 hPa Calm     90 % 0.51 mm
21:18 11.3 °C 9.8 °C 1014.8 hPa East 3.7 km/h 3.7 km/h 90 % 0.51 mm
21:24 11.3 °C 9.8 °C 1014.8 hPa Calm     90 % 0.51 mm
21:29 11.3 °C 9.7 °C 1014.8 hPa Calm     90 % 0.25 mm
21:34 11.3 °C 9.7 °C 1014.8 hPa Calm     90 % 0.25 mm
21:39 11.3 °C 9.7 °C 1014.8 hPa Calm     90 % 0 mm
21:44 11.3 °C 9.7 °C 1014.8 hPa Calm     90 % 0 mm
21:49 11.3 °C 9.7 °C 1014.8 hPa Calm     90 % 0 mm
21:54 11.2 °C 9.8 °C 1014.8 hPa Calm     91 % 0 mm
21:59 11.2 °C 9.8 °C 1014.8 hPa Calm     91 % 0 mm
22:13 11.2 °C 9.8 °C 1014.8 hPa NW 1.9 km/h 1.9 km/h 91 % 0.25 mm
22:18 11.1 °C 9.7 °C 1014.8 hPa West 1.9 km/h   91 % 0.25 mm
22:23 11.1 °C 9.7 °C 1014.8 hPa Calm     91 % 0.25 mm
22:28 11 °C 9.6 °C 1014.8 hPa Calm     91 % 0.25 mm
22:33 10.9 °C 9.7 °C 1014.8 hPa Calm     92 % 0.76 mm
22:38 10.9 °C 9.7 °C 1014.4 hPa East 1.9 km/h   92 % 1.02 mm
22:43 11 °C 9.6 °C 1014.8 hPa Calm     91 % 1.27 mm
22:48 11 °C 9.6 °C 1014.8 hPa Calm     91 % 1.27 mm
22:53 10.9 °C 9.6 °C 1014.8 hPa Calm     91 % 1.27 mm
22:58 11 °C 9.6 °C 1014.8 hPa Calm     91 % 1.52 mm
23:03 11 °C 9.6 °C 1014.4 hPa Calm     91 % 1.52 mm
23:08 10.9 °C 9.6 °C 1014.4 hPa Calm     91 % 1.78 mm
23:13 11 °C 9.4 °C 1014.8 hPa East 1.9 km/h   90 % 1.52 mm
23:18 11 °C 9.4 °C 1014.8 hPa East 1.9 km/h 1.9 km/h 90 % 1.52 mm
23:23 10.9 °C 9.4 °C 1014.8 hPa East 1.9 km/h   90 % 1.52 mm
23:28 10.9 °C 9.3 °C 1014.8 hPa Calm   0.5 km/h 90 % 1.78 mm
23:33 10.8 °C 9.4 °C 1014.4 hPa East 3.2 km/h 3.2 km/h 91 % 1.27 mm
23:38 10.7 °C 9.3 °C 1014.4 hPa East 3.7 km/h   91 % 1.02 mm
23:43 10.7 °C 9.3 °C 1014.4 hPa East 1.9 km/h 1.9 km/h 91 % 1.02 mm
23:49 10.7 °C 9.3 °C 1014.4 hPa East 4.8 km/h 4.8 km/h 91 % 1.02 mm
23:54 10.8 °C 9.2 °C 1014.1 hPa SSW 5.6 km/h 5.6 km/h 90 % 1.02 mm
23:59 10.8 °C 9.2 °C 1014.4 hPa ESE 5.6 km/h 5.6 km/h 90 % 0.76 mm
Park Place, Exeter, Tulare County, California, USA
Compliments of Weather Underground - 2.75 mb